MMVA

Carlos Rovirosa Pérez International Airport

Villahermosa, Mexico
TAF AMD MMVA 182136Z 1822/1918 12005KT 6SM HZ SCT015 OVC060 TEMPO 1823/1903 BKN015 FM190300 13005KT 6SM HZ BKN015 OVC060 TEMPO 1910/1914 2SM BR SCT015 FM191400 13005KT 5SM HZ SCT020
Issued Valid From Valid To
Dec-18 @ 21:36 UTC
(2 hours ago)
Dec-18 @ 22:00 UTC
(an hour ago)
Dec-19 @ 18:00 UTC
(in 19 hours)
Dec-18 @ 22:00 to Dec-19 @ 03:00
TAF AMD MMVA 182136Z 1822/1918 12005KT 6SM HZ SCT015 OVC060
Wind Visibility Clouds Conditions
120° at 5 knots 6 miles
  • Scattered at 1,500' AGL
  • Overcast at 6,000' AGL
  • Haze
Temporary Dec-18 @ 23:00 to Dec-19 @ 03:00
TEMPO 1823/1903 BKN015
Clouds
  • Broken at 1,500' AGL
From Dec-19 @ 03:00 to Dec-19 @ 14:00
FM190300 13005KT 6SM HZ BKN015 OVC060
Wind Visibility Clouds Conditions
130° at 5 knots 6 miles
  • Broken at 1,500' AGL
  • Overcast at 6,000' AGL
  • Haze
Temporary Dec-19 @ 10:00 to Dec-19 @ 14:00
TEMPO 1910/1914 2SM BR SCT015
Visibility Clouds Conditions
2 miles
  • Scattered at 1,500' AGL
  • Mist
From Dec-19 @ 14:00 to Dec-19 @ 18:00
FM191400 13005KT 5SM HZ SCT020
Wind Visibility Clouds Conditions
130° at 5 knots 5 miles
  • Scattered at 2,000' AGL
  • Haze
TAF AMD MMVA 182136Z 1822/1918 12005KT 6SM HZ SCT015 OVC060 TEMPO 1823/1903 BKN015 FM190300 13005KT 6SM HZ BKN015 OVC060 TEMPO 1910/1914 2SM BR SCT015 FM191400 13005KT 5SM HZ SCT020
Issued Dec-18 @ 21:36 UTC
(2 hours ago)
Valid From Dec-18 @ 22:00 UTC
(an hour ago)
Valid To Dec-19 @ 18:00 UTC
(in 19 hours)
Dec-18 @ 22:00 - Dec-19 @ 03:00
Wind Visibility
120° at 5 knots 6 miles
Clouds
  • Scattered at 1,500' AGL
  • Overcast at 6,000' AGL
Conditions
  • Haze
Temporary Dec-18 @ 23:00 - Dec-19 @ 03:00
Clouds
  • Broken at 1,500' AGL
From Dec-19 @ 03:00 - Dec-19 @ 14:00
Wind Visibility
130° at 5 knots 6 miles
Clouds
  • Broken at 1,500' AGL
  • Overcast at 6,000' AGL
Conditions
  • Haze
Temporary Dec-19 @ 10:00 - Dec-19 @ 14:00
Clouds
  • Scattered at 1,500' AGL
Conditions
  • Mist
From Dec-19 @ 14:00 - Dec-19 @ 18:00
Wind Visibility
130° at 5 knots 5 miles
Clouds
  • Scattered at 2,000' AGL
Conditions
  • Haze